Time;durP1;ratioP1;P1;durP2;ratioP2;P2;SDS_P1;SDS_P2;PMS_P1;PMS_P2;Temp;Humidity;BMP_temperature;BMP_pressure;BME280_temperature;BME280_humidity;BME280_pressure;Samples;Min_cycle;Max_cycle;Signal;HPM_P1;HPM_P2
2021/09/12 00:01:59;;;;;;;5.10;4.60;;;15.80;99.90;;;;;;4976039;28;20258;-66
2021/09/12 00:04:24;;;;;;;5.60;5.10;;;15.80;99.90;;;;;;4975669;28;20204;-63
2021/09/12 00:06:50;;;;;;;4.30;3.90;;;15.70;99.90;;;;;;4975573;28;20183;-61
2021/09/12 00:09:16;;;;;;;3.30;3.00;;;15.70;99.90;;;;;;4975773;28;20210;-62
2021/09/12 00:11:41;;;;;;;8.20;4.10;;;15.80;99.90;;;;;;4958370;28;20273;-66
2021/09/12 00:14:07;;;;;;;3.80;3.50;;;15.70;99.90;;;;;;4975709;28;20755;-62
2021/09/12 00:16:33;;;;;;;4.00;3.70;;;15.70;99.90;;;;;;4974858;28;20183;-64
2021/09/12 00:18:58;;;;;;;3.77;3.47;;;15.60;99.90;;;;;;4975551;28;20211;-63
2021/09/12 00:21:24;;;;;;;4.17;3.60;;;15.60;99.90;;;;;;4975576;28;20684;-66
2021/09/12 00:23:50;;;;;;;5.53;4.70;;;15.60;99.90;;;;;;4975271;28;20237;-64
2021/09/12 00:26:16;;;;;;;7.00;4.63;;;15.60;99.90;;;;;;4958004;28;20551;-66
2021/09/12 00:28:42;;;;;;;7.03;4.93;;;15.60;99.90;;;;;;4974394;28;20194;-65
2021/09/12 00:31:11;;;;;;;7.17;5.47;;;15.50;99.90;;;;;;4974839;28;20429;-64
2021/09/12 00:33:36;;;;;;;4.93;3.43;;;15.50;99.90;;;;;;4975268;28;20936;-64
2021/09/12 00:36:02;;;;;;;4.90;4.43;;;15.50;99.90;;;;;;4975343;28;20513;-64
2021/09/12 00:38:28;;;;;;;3.60;3.17;;;15.40;99.90;;;;;;4974419;28;20681;-63
2021/09/12 00:40:59;;;;;;;7.37;4.33;;;15.40;99.90;;;;;;4974939;28;20499;-66
2021/09/12 00:43:26;;;;;;;4.90;4.40;;;15.40;99.90;;;;;;4975046;28;20181;-67
2021/09/12 00:45:56;;;;;;;10.93;4.60;;;15.30;99.90;;;;;;4974979;28;20946;-62
2021/09/12 00:48:23;;;;;;;5.43;4.50;;;15.30;99.90;;;;;;4974538;28;20903;-67
2021/09/12 00:50:50;;;;;;;4.90;4.40;;;15.30;99.90;;;;;;4975322;28;20429;-64
2021/09/12 00:53:17;;;;;;;4.10;3.70;;;15.30;99.90;;;;;;4974915;28;20555;-66
2021/09/12 00:55:45;;;;;;;5.27;3.93;;;15.30;99.90;;;;;;4975257;28;20406;-64
2021/09/12 00:58:21;;;;;;;4.77;4.20;;;15.30;99.90;;;;;;4974379;28;20418;-64
2021/09/12 01:00:46;;;;;;;5.23;4.00;;;15.30;99.90;;;;;;4939040;29;20494;-63
2021/09/12 01:03:12;;;;;;;6.27;3.60;;;15.20;99.90;;;;;;4956113;28;20898;-68
2021/09/12 01:05:38;;;;;;;3.80;3.40;;;15.20;99.90;;;;;;4974979;28;20696;-63
2021/09/12 01:08:05;;;;;;;5.40;4.10;;;15.20;99.90;;;;;;4974473;28;20178;-65
2021/09/12 01:10:31;;;;;;;5.27;4.33;;;15.10;99.90;;;;;;4974739;28;20740;-64
2021/09/12 01:12:57;;;;;;;5.57;4.00;;;15.20;99.90;;;;;;4974412;28;20464;-66
2021/09/12 01:15:22;;;;;;;5.47;4.50;;;15.10;99.90;;;;;;4974660;28;20178;-66
2021/09/12 01:17:48;;;;;;;5.97;4.70;;;15.00;99.90;;;;;;4974168;28;20175;-63
2021/09/12 01:20:14;;;;;;;6.30;4.40;;;15.00;99.90;;;;;;4974536;28;20283;-63
2021/09/12 01:22:39;;;;;;;5.83;4.30;;;15.00;99.90;;;;;;4974404;28;20530;-62
2021/09/12 01:25:08;;;;;;;6.00;4.23;;;14.90;99.90;;;;;;4974008;28;20310;-64
2021/09/12 01:27:34;;;;;;;6.00;4.97;;;14.90;99.90;;;;;;4974161;28;20175;-62
2021/09/12 01:30:01;;;;;;;3.93;3.50;;;14.90;99.90;;;;;;4974017;28;21000;-66
2021/09/12 01:32:27;;;;;;;4.23;3.83;;;14.80;99.90;;;;;;4974769;28;20234;-61
2021/09/12 01:34:53;;;;;;;4.90;4.50;;;14.80;99.90;;;;;;4974212;28;20473;-64
2021/09/12 01:37:19;;;;;;;4.97;4.53;;;14.80;99.90;;;;;;4973885;28;20406;-61
2021/09/12 01:39:44;;;;;;;5.30;4.53;;;14.80;99.90;;;;;;4973820;28;20292;-65
2021/09/12 01:42:10;;;;;;;5.53;4.77;;;14.80;99.90;;;;;;4973874;28;20754;-67
2021/09/12 01:44:35;;;;;;;5.10;4.57;;;14.70;99.90;;;;;;4974131;28;20179;-63
2021/09/12 01:47:01;;;;;;;5.77;4.83;;;14.70;99.90;;;;;;4974023;28;20240;-65
2021/09/12 01:49:27;;;;;;;4.93;4.43;;;14.70;99.90;;;;;;4973956;28;20221;-65
2021/09/12 01:51:53;;;;;;;5.23;4.57;;;14.70;99.90;;;;;;4974349;28;20175;-64
2021/09/12 01:54:19;;;;;;;5.23;4.53;;;14.70;99.90;;;;;;4973672;28;20209;-62
2021/09/12 01:56:45;;;;;;;7.40;4.30;;;14.60;99.90;;;;;;4973682;28;20163;-65
2021/09/12 01:59:11;;;;;;;7.00;4.63;;;14.60;99.90;;;;;;4956227;28;20450;-61
2021/09/12 02:01:36;;;;;;;5.40;4.17;;;14.60;99.90;;;;;;4974140;28;20183;-64
2021/09/12 02:04:02;;;;;;;5.00;4.50;;;14.60;99.90;;;;;;4974164;28;20201;-61
2021/09/12 02:06:28;;;;;;;6.63;4.67;;;14.50;99.90;;;;;;4974132;28;20194;-65
2021/09/12 02:08:54;;;;;;;4.63;4.10;;;14.50;99.90;;;;;;4973781;28;20210;-63
2021/09/12 02:11:20;;;;;;;6.37;4.23;;;14.50;99.90;;;;;;4973886;28;20183;-65
2021/09/12 02:13:46;;;;;;;6.30;4.93;;;14.50;99.90;;;;;;4973714;28;20674;-62
2021/09/12 02:16:12;;;;;;;4.43;4.03;;;14.50;99.90;;;;;;4974018;28;20426;-61
2021/09/12 02:18:38;;;;;;;4.47;4.07;;;14.50;99.90;;;;;;4973667;28;20278;-65
2021/09/12 02:21:03;;;;;;;4.90;4.33;;;14.50;99.90;;;;;;4973823;28;20443;-64
2021/09/12 02:23:29;;;;;;;6.43;5.03;;;14.60;99.90;;;;;;4974095;28;20444;-65
2021/09/12 02:25:55;;;;;;;5.60;5.10;;;14.70;99.90;;;;;;4974034;28;20190;-62
2021/09/12 02:28:21;;;;;;;3.90;3.60;;;14.60;99.90;;;;;;4973530;28;20183;-64
2021/09/12 02:30:46;;;;;;;6.97;4.10;;;14.60;99.90;;;;;;4973517;28;20481;-62
2021/09/12 02:33:12;;;;;;;4.17;3.83;;;14.50;99.90;;;;;;4973832;28;20634;-64
2021/09/12 02:35:38;;;;;;;5.03;3.37;;;14.50;99.90;;;;;;4973997;28;20582;-63
2021/09/12 02:38:04;;;;;;;4.40;4.03;;;14.50;99.90;;;;;;4973451;28;20732;-66
2021/09/12 02:40:30;;;;;;;4.97;3.90;;;14.50;99.90;;;;;;4973917;28;20171;-62
2021/09/12 02:42:55;;;;;;;3.70;3.40;;;14.40;99.90;;;;;;4974005;28;20410;-66
2021/09/12 02:45:21;;;;;;;4.53;4.03;;;14.50;99.90;;;;;;4973525;28;20517;-62
2021/09/12 02:47:47;;;;;;;5.30;4.80;;;14.40;99.90;;;;;;4973300;28;20642;-64
2021/09/12 02:50:12;;;;;;;5.37;4.03;;;14.50;99.90;;;;;;4973460;28;20291;-65
2021/09/12 02:52:38;;;;;;;3.60;3.30;;;14.40;99.90;;;;;;4974602;28;20183;-65
2021/09/12 02:55:05;;;;;;;8.60;3.93;;;14.40;99.90;;;;;;4977235;28;20239;-64
2021/09/12 02:57:31;;;;;;;2.67;2.47;;;14.40;99.90;;;;;;4976640;28;20658;-65
2021/09/12 02:59:58;;;;;;;4.77;4.10;;;14.30;99.90;;;;;;4976585;28;20512;-66
2021/09/12 03:02:24;;;;;;;4.00;3.70;;;14.30;99.90;;;;;;4977030;28;20190;-64
2021/09/12 03:04:50;;;;;;;4.00;3.70;;;14.30;99.90;;;;;;4977107;28;20747;-65
2021/09/12 03:07:16;;;;;;;3.00;2.80;;;14.30;99.90;;;;;;4976966;28;20491;-67
2021/09/12 03:09:41;;;;;;;3.63;3.07;;;14.20;99.90;;;;;;4959462;28;20598;-63
2021/09/12 03:12:07;;;;;;;4.73;4.33;;;14.20;99.90;;;;;;4977122;28;20502;-62
2021/09/12 03:14:33;;;;;;;4.37;3.77;;;14.20;99.90;;;;;;4976706;28;20247;-65
2021/09/12 03:16:59;;;;;;;5.07;4.30;;;14.20;99.90;;;;;;4976589;28;20422;-64
2021/09/12 03:19:24;;;;;;;6.00;4.13;;;14.20;99.90;;;;;;4976824;28;20759;-63
2021/09/12 03:21:50;;;;;;;4.47;4.07;;;14.30;99.90;;;;;;4976991;28;20411;-66
2021/09/12 03:24:16;;;;;;;3.93;2.97;;;14.30;99.90;;;;;;4976971;28;20267;-63
2021/09/12 03:26:41;;;;;;;4.00;3.67;;;14.30;99.90;;;;;;4976610;28;20168;-64
2021/09/12 03:29:07;;;;;;;5.10;4.57;;;14.30;99.90;;;;;;4976473;28;20198;-67
2021/09/12 03:31:33;;;;;;;3.43;3.03;;;14.40;99.90;;;;;;4959388;28;20256;-66
2021/09/12 03:33:58;;;;;;;4.43;4.10;;;14.40;99.90;;;;;;4976175;28;20624;-63
2021/09/12 03:36:24;;;;;;;4.53;4.13;;;14.40;99.90;;;;;;4976793;28;20186;-67
2021/09/12 03:38:50;;;;;;;7.10;4.40;;;14.30;99.90;;;;;;4976065;28;20313;-63
2021/09/12 03:41:15;;;;;;;7.73;4.73;;;14.20;99.90;;;;;;4976847;28;20632;-63
2021/09/12 03:43:41;;;;;;;7.73;4.47;;;14.20;99.90;;;;;;4976573;28;20178;-62
2021/09/12 03:46:07;;;;;;;3.90;3.60;;;14.00;99.90;;;;;;4976520;28;20179;-65
2021/09/12 03:48:32;;;;;;;5.60;5.10;;;14.00;99.90;;;;;;4975659;28;20202;-66
2021/09/12 03:50:58;;;;;;;5.13;4.73;;;13.90;99.90;;;;;;4976260;28;20549;-65
2021/09/12 03:53:24;;;;;;;4.70;4.30;;;13.90;99.90;;;;;;4976193;28;20227;-65
2021/09/12 03:55:49;;;;;;;4.50;4.10;;;13.80;99.90;;;;;;4976312;28;20182;-63
2021/09/12 03:58:15;;;;;;;4.77;4.37;;;13.80;99.90;;;;;;4976088;28;20174;-64
2021/09/12 04:00:41;;;;;;;9.73;4.23;;;13.80;99.90;;;;;;4976240;28;20173;-65
2021/09/12 04:03:06;;;;;;;13.60;4.30;;;13.70;99.90;;;;;;4975719;28;20174;-64
2021/09/12 04:05:32;;;;;;;4.03;3.63;;;13.70;99.90;;;;;;4975997;28;20229;-67
2021/09/12 04:07:57;;;;;;;3.87;3.33;;;13.70;99.90;;;;;;4975711;28;20639;-63
2021/09/12 04:10:23;;;;;;;3.03;2.77;;;13.60;99.90;;;;;;4975942;28;20197;-65
2021/09/12 04:12:49;;;;;;;4.95;3.92;;;13.60;99.90;;;;;;4975890;28;20239;-65
2021/09/12 04:15:15;;;;;;;3.07;2.80;;;13.50;99.90;;;;;;4976054;28;20202;-64
2021/09/12 04:17:41;;;;;;;3.63;3.33;;;13.50;99.90;;;;;;4975166;28;20183;-67
2021/09/12 04:20:07;;;;;;;4.03;2.67;;;13.50;99.90;;;;;;4975703;28;20198;-66
2021/09/12 04:22:34;;;;;;;3.43;3.13;;;13.40;99.90;;;;;;4975906;28;20186;-65
2021/09/12 04:25:00;;;;;;;3.40;3.10;;;13.40;99.90;;;;;;4975800;28;20448;-65
2021/09/12 04:27:25;;;;;;;3.00;2.67;;;13.40;99.90;;;;;;4975328;28;20875;-65
2021/09/12 04:29:51;;;;;;;3.53;3.30;;;13.40;99.90;;;;;;4975583;28;20708;-65
2021/09/12 04:32:17;;;;;;;3.57;3.20;;;13.40;99.90;;;;;;4957663;28;20317;-63
2021/09/12 04:34:46;;;;;;;4.20;3.70;;;13.50;99.90;;;;;;4975150;28;20205;-64
2021/09/12 04:37:11;;;;;;;3.33;2.87;;;13.40;99.90;;;;;;4958206;28;20186;-64
2021/09/12 04:39:37;;;;;;;4.90;3.23;;;13.50;99.90;;;;;;4975335;28;20875;-66
2021/09/12 04:42:03;;;;;;;9.97;3.53;;;13.50;99.90;;;;;;4975678;28;20174;-64
2021/09/12 04:44:29;;;;;;;31.70;4.90;;;13.50;99.90;;;;;;4975319;28;20182;-67
2021/09/12 04:46:55;;;;;;;3.73;3.33;;;13.50;99.90;;;;;;4974696;28;20410;-66
2021/09/12 04:49:21;;;;;;;3.43;2.97;;;13.50;99.90;;;;;;4955794;28;20215;-65
2021/09/12 04:51:46;;;;;;;14.70;7.30;;;13.50;99.90;;;;;;4955978;29;20932;-66
2021/09/12 04:54:12;;;;;;;9.20;3.80;;;13.60;99.90;;;;;;4955731;29;20214;-63
2021/09/12 04:56:37;;;;;;;11.03;4.13;;;13.50;99.90;;;;;;4955771;29;20182;-65
2021/09/12 04:59:03;;;;;;;3.87;3.53;;;13.50;99.90;;;;;;4955808;28;20253;-63
2021/09/12 05:01:29;;;;;;;3.93;3.53;;;13.60;99.90;;;;;;4955716;29;20175;-65
2021/09/12 05:03:55;;;;;;;3.23;3.03;;;13.60;99.90;;;;;;4973622;28;20192;-64
2021/09/12 05:06:21;;;;;;;5.03;3.17;;;13.70;99.90;;;;;;4958019;28;20173;-65
2021/09/12 05:08:46;;;;;;;3.63;3.10;;;13.70;99.90;;;;;;4974609;28;20971;-64
2021/09/12 05:11:12;;;;;;;4.90;4.50;;;13.70;99.90;;;;;;4975123;28;20178;-67
2021/09/12 05:13:38;;;;;;;5.10;3.93;;;13.80;99.90;;;;;;4975027;28;20223;-65
2021/09/12 05:16:04;;;;;;;6.07;3.97;;;13.80;99.90;;;;;;4974352;28;20417;-65
2021/09/12 05:18:30;;;;;;;9.77;4.77;;;13.70;99.90;;;;;;4974332;28;20289;-67
2021/09/12 05:20:56;;;;;;;5.67;3.83;;;13.80;99.90;;;;;;4975018;28;20876;-64
2021/09/12 05:23:22;;;;;;;6.23;3.57;;;13.80;99.90;;;;;;4974746;28;20462;-66
2021/09/12 05:25:50;;;;;;;17.30;5.40;;;13.70;99.90;;;;;;4974599;28;20422;-65
2021/09/12 05:28:16;;;;;;;11.47;4.70;;;13.70;99.90;;;;;;4974148;28;20516;-64
2021/09/12 05:30:42;;;;;;;2.97;2.77;;;13.70;99.90;;;;;;4974671;28;20415;-64
2021/09/12 05:33:08;;;;;;;6.23;4.27;;;13.70;99.90;;;;;;4974500;28;20511;-63
2021/09/12 05:35:33;;;;;;;26.07;3.83;;;13.70;99.90;;;;;;4974558;28;20178;-66
2021/09/12 05:37:59;;;;;;;4.07;3.67;;;13.70;99.90;;;;;;4974138;28;20238;-63
2021/09/12 05:40:25;;;;;;;3.80;3.50;;;13.70;99.90;;;;;;4957013;28;20529;-65
2021/09/12 05:42:50;;;;;;;3.67;3.30;;;13.80;99.90;;;;;;4974508;28;20661;-66
2021/09/12 05:45:16;;;;;;;6.73;4.33;;;13.90;99.90;;;;;;4974090;28;20182;-63
2021/09/12 05:47:42;;;;;;;4.67;3.87;;;13.80;99.90;;;;;;4974148;28;20172;-66
2021/09/12 05:50:08;;;;;;;5.10;3.90;;;13.80;99.90;;;;;;4974422;28;20210;-65
2021/09/12 05:52:35;;;;;;;4.30;3.73;;;13.90;99.90;;;;;;4974295;28;20422;-64
2021/09/12 05:55:00;;;;;;;12.47;4.80;;;13.90;99.90;;;;;;4974433;28;20469;-67
2021/09/12 05:57:26;;;;;;;14.47;4.30;;;14.00;99.90;;;;;;4956471;28;20943;-63
2021/09/12 05:59:52;;;;;;;10.03;3.97;;;14.10;99.90;;;;;;4974238;28;20542;-67
2021/09/12 06:02:18;;;;;;;5.47;3.93;;;14.00;99.90;;;;;;4974272;28;20176;-64
2021/09/12 06:04:44;;;;;;;6.37;4.63;;;14.10;99.90;;;;;;4973790;28;20410;-68
2021/09/12 06:07:10;;;;;;;9.60;4.27;;;14.10;99.90;;;;;;4973878;28;20550;-68
2021/09/12 06:09:38;;;;;;;4.33;3.93;;;14.30;99.90;;;;;;4974151;28;20434;-67
2021/09/12 06:12:05;;;;;;;7.03;3.67;;;14.40;99.90;;;;;;4973951;28;20805;-63
2021/09/12 06:14:31;;;;;;;4.47;4.07;;;14.50;99.90;;;;;;4973936;28;20463;-66
2021/09/12 06:16:56;;;;;;;4.90;3.43;;;14.60;99.90;;;;;;4973648;28;20914;-64
2021/09/12 06:19:22;;;;;;;15.10;4.77;;;14.70;99.90;;;;;;4973880;28;20210;-65
2021/09/12 06:21:48;;;;;;;4.10;3.03;;;14.80;99.90;;;;;;4974175;28;20190;-65
2021/09/12 06:24:13;;;;;;;8.20;4.17;;;14.80;99.90;;;;;;4974086;28;20191;-65
2021/09/12 06:26:39;;;;;;;4.33;3.93;;;14.90;99.90;;;;;;4973664;28;20215;-63
2021/09/12 06:29:04;;;;;;;11.50;4.27;;;14.90;99.90;;;;;;4976809;28;20645;-63
2021/09/12 06:31:30;;;;;;;5.23;4.43;;;14.90;99.90;;;;;;4977597;28;20176;-66
2021/09/12 06:33:56;;;;;;;4.70;3.77;;;15.00;99.90;;;;;;4977471;28;20239;-64
2021/09/12 06:36:21;;;;;;;4.10;3.70;;;15.10;99.90;;;;;;4977769;28;20179;-65
2021/09/12 06:38:47;;;;;;;7.83;4.57;;;15.20;99.90;;;;;;4959578;28;20196;-63
2021/09/12 06:41:13;;;;;;;23.00;6.97;;;15.30;99.90;;;;;;4977479;28;20230;-66
2021/09/12 06:43:39;;;;;;;11.40;5.07;;;15.40;99.90;;;;;;4977449;28;20411;-63
2021/09/12 06:46:05;;;;;;;11.63;4.73;;;15.40;99.90;;;;;;4977314;28;20183;-63
2021/09/12 06:48:31;;;;;;;6.30;5.53;;;15.50;99.90;;;;;;4977097;28;20651;-65
2021/09/12 06:50:57;;;;;;;32.67;8.50;;;15.60;99.90;;;;;;4977399;28;20443;-65
2021/09/12 06:53:24;;;;;;;4.97;4.50;;;15.60;99.90;;;;;;4977001;28;20466;-63
2021/09/12 06:55:50;;;;;;;10.30;4.37;;;15.70;99.90;;;;;;4977153;28;20419;-64
2021/09/12 06:58:17;;;;;;;4.30;3.67;;;15.80;99.90;;;;;;4976804;28;20929;-64
2021/09/12 07:00:42;;;;;;;4.73;4.17;;;16.00;99.90;;;;;;4976987;28;20252;-66
2021/09/12 07:03:08;;;;;;;4.40;3.70;;;16.10;99.90;;;;;;4977265;28;20527;-66
2021/09/12 07:05:34;;;;;;;4.63;4.23;;;16.20;99.90;;;;;;4977171;28;20420;-62
2021/09/12 07:07:59;;;;;;;5.50;4.77;;;16.30;99.90;;;;;;4976418;28;21050;-64
2021/09/12 07:10:25;;;;;;;4.80;3.90;;;16.50;99.90;;;;;;4976693;28;20267;-64
2021/09/12 07:12:51;;;;;;;5.60;3.93;;;16.80;99.90;;;;;;4976950;28;20194;-65
2021/09/12 07:15:17;;;;;;;4.00;3.70;;;16.90;99.90;;;;;;4977039;28;20184;-63
2021/09/12 07:17:43;;;;;;;4.03;3.60;;;17.00;99.90;;;;;;4976491;28;20760;-64
2021/09/12 07:20:09;;;;;;;3.77;3.47;;;17.10;99.90;;;;;;4976615;28;20469;-64
2021/09/12 07:22:35;;;;;;;3.50;3.20;;;17.10;99.90;;;;;;4976079;28;20182;-65
2021/09/12 07:25:01;;;;;;;3.70;3.20;;;17.10;99.90;;;;;;4976713;28;20466;-66
2021/09/12 07:27:26;;;;;;;3.50;3.20;;;17.20;99.90;;;;;;4976284;28;20186;-64
2021/09/12 07:29:52;;;;;;;4.63;4.03;;;17.40;99.90;;;;;;4976502;28;20202;-65
2021/09/12 07:32:17;;;;;;;4.97;4.47;;;17.40;99.90;;;;;;4976811;28;20180;-62
2021/09/12 07:34:43;;;;;;;3.63;3.33;;;17.60;99.90;;;;;;4976473;28;20361;-65
2021/09/12 07:37:09;;;;;;;3.63;3.30;;;17.70;99.90;;;;;;4958754;28;20176;-63
2021/09/12 07:39:34;;;;;;;3.60;3.30;;;17.90;99.90;;;;;;4968179;28;20563;-65
2021/09/12 07:42:01;;;;;;;3.30;3.00;;;18.20;99.90;;;;;;4976573;28;20583;-62
2021/09/12 07:44:27;;;;;;;3.50;3.20;;;18.50;99.90;;;;;;4976257;28;20182;-64
2021/09/12 07:46:53;;;;;;;3.23;2.60;;;18.80;99.90;;;;;;4976150;28;20416;-64
2021/09/12 07:49:19;;;;;;;3.77;2.70;;;19.10;99.90;;;;;;4976213;28;20454;-63
2021/09/12 07:51:45;;;;;;;2.90;2.53;;;19.40;99.90;;;;;;4976425;28;20200;-64
2021/09/12 07:54:10;;;;;;;2.67;2.47;;;20.10;99.90;;;;;;4975396;28;20479;-64
2021/09/12 07:56:36;;;;;;;2.93;2.63;;;20.70;99.90;;;;;;4976057;28;20168;-64
2021/09/12 07:59:02;;;;;;;3.27;3.07;;;21.70;99.90;;;;;;4976389;28;20235;-65
2021/09/12 08:01:28;;;;;;;2.70;2.50;;;22.90;99.90;;;;;;4976095;28;20694;-65
2021/09/12 08:03:54;;;;;;;2.60;2.40;;;24.10;99.90;;;;;;4976041;28;20643;-65
2021/09/12 08:06:19;;;;;;;2.90;2.70;;;25.40;99.90;;;;;;4975915;28;20782;-61
2021/09/12 08:08:45;;;;;;;2.50;2.30;;;26.60;99.90;;;;;;4975246;28;20208;-63
2021/09/12 08:11:10;;;;;;;3.57;3.27;;;27.30;99.90;;;;;;4975929;28;20176;-61
2021/09/12 08:13:36;;;;;;;2.83;2.60;;;27.90;99.90;;;;;;4975813;28;20207;-65
2021/09/12 08:16:02;;;;;;;2.93;2.73;;;28.50;97.90;;;;;;4975828;28;20172;-63
2021/09/12 08:18:28;;;;;;;2.83;2.63;;;29.10;96.30;;;;;;4975227;28;20274;-63
2021/09/12 08:20:54;;;;;;;3.40;3.10;;;29.70;95.00;;;;;;4975762;28;20469;-65
2021/09/12 08:23:20;;;;;;;3.03;2.83;;;30.10;93.80;;;;;;4975021;28;20180;-65
2021/09/12 08:25:49;;;;;;;2.60;2.40;;;30.40;92.70;;;;;;4975366;28;20195;-63
2021/09/12 08:28:15;;;;;;;2.83;2.63;;;30.50;92.30;;;;;;4975100;28;20550;-64
2021/09/12 08:30:40;;;;;;;2.87;2.67;;;30.60;92.60;;;;;;4975197;28;20404;-62
2021/09/12 08:33:16;;;;;;;2.60;2.50;;;31.20;91.40;;;;;;4975525;28;20232;-67
2021/09/12 08:35:43;;;;;;;2.97;2.77;;;31.40;90.40;;;;;;4975256;28;20214;-67
2021/09/12 08:38:09;;;;;;;3.23;3.00;;;31.80;89.10;;;;;;4974555;28;20521;-65
2021/09/12 08:40:35;;;;;;;3.90;3.60;;;32.30;86.20;;;;;;4975456;28;20481;-64
2021/09/12 08:43:01;;;;;;;2.70;2.60;;;32.80;83.60;;;;;;4975130;28;20408;-68
2021/09/12 08:45:27;;;;;;;3.37;3.17;;;32.90;84.00;;;;;;4975066;28;20184;-60
2021/09/12 08:47:55;;;;;;;2.90;2.70;;;32.90;82.00;;;;;;4956932;28;20843;-66
2021/09/12 08:50:21;;;;;;;2.90;2.70;;;32.80;84.50;;;;;;4973287;28;20942;-65
2021/09/12 08:52:47;;;;;;;3.80;3.50;;;33.00;81.60;;;;;;4973835;28;20423;-66
2021/09/12 08:55:13;;;;;;;2.70;2.50;;;33.10;81.70;;;;;;4974488;28;20822;-60
2021/09/12 08:57:46;;;;;;;2.50;2.40;;;33.00;80.80;;;;;;4974520;28;20255;-63
2021/09/12 09:00:19;;;;;;;2.43;2.23;;;33.00;80.00;;;;;;4957829;28;20444;-63
2021/09/12 09:02:44;;;;;;;3.30;3.00;;;33.50;79.80;;;;;;4974877;28;20506;-63
2021/09/12 09:05:10;;;;;;;2.37;2.27;;;34.20;76.00;;;;;;4974258;28;20926;-64
2021/09/12 09:07:36;;;;;;;2.50;2.40;;;34.70;76.00;;;;;;4974994;28;20180;-66
2021/09/12 09:10:03;;;;;;;2.20;2.10;;;35.00;73.20;;;;;;4974505;28;20235;-65
2021/09/12 09:12:38;;;;;;;2.20;2.10;;;35.10;72.40;;;;;;4974565;28;20699;-65
2021/09/12 09:15:08;;;;;;;2.73;2.53;;;35.30;70.10;;;;;;4974395;28;21028;-63
2021/09/12 09:17:48;;;;;;;2.10;2.00;;;35.00;70.50;;;;;;4974265;28;20775;-64
2021/09/12 09:20:47;;;;;;;2.20;2.10;;;34.90;70.20;;;;;;4974107;28;20443;-64
2021/09/12 09:23:12;;;;;;;2.00;1.90;;;35.20;72.10;;;;;;4957936;28;20427;-65
2021/09/12 09:25:38;;;;;;;2.50;2.40;;;35.40;67.80;;;;;;4974436;28;20411;-62
2021/09/12 09:28:09;;;;;;;2.17;2.07;;;35.50;68.00;;;;;;4973965;28;20234;-66
2021/09/12 09:30:59;;;;;;;2.37;2.27;;;35.50;67.70;;;;;;4974200;28;20175;-66
2021/09/12 09:33:28;;;;;;;1.90;1.80;;;35.50;67.50;;;;;;4974203;28;20487;-64
2021/09/12 09:35:53;;;;;;;2.20;2.10;;;35.90;66.20;;;;;;4974326;28;20447;-63
2021/09/12 09:38:24;;;;;;;2.00;1.90;;;36.00;60.90;;;;;;4973855;28;20404;-66
2021/09/12 09:40:57;;;;;;;1.70;1.60;;;35.50;63.30;;;;;;4974412;28;20627;-64
2021/09/12 09:43:23;;;;;;;3.40;3.20;;;35.50;64.10;;;;;;4973770;28;20426;-65
2021/09/12 09:45:49;;;;;;;3.50;1.67;;;35.70;64.90;;;;;;4974387;28;20514;-63
2021/09/12 09:48:15;;;;;;;2.03;1.93;;;35.80;62.00;;;;;;4956866;28;20180;-64
2021/09/12 09:50:42;;;;;;;2.40;2.20;;;35.40;61.20;;;;;;4974256;28;20199;-64
2021/09/12 09:53:12;;;;;;;1.80;1.70;;;34.90;63.00;;;;;;4974464;28;20172;-68
2021/09/12 09:55:38;;;;;;;1.80;1.70;;;34.80;64.00;;;;;;4974518;28;20411;-65
2021/09/12 09:58:08;;;;;;;2.53;2.43;;;34.80;61.20;;;;;;4956297;28;20934;-69
2021/09/12 10:00:34;;;;;;;2.53;2.43;;;34.90;62.00;;;;;;4974182;28;20482;-62
2021/09/12 10:03:01;;;;;;;3.37;3.17;;;35.10;62.60;;;;;;4977548;28;20455;-62
2021/09/12 10:05:28;;;;;;;2.67;2.57;;;35.30;60.30;;;;;;4978437;28;20164;-64
2021/09/12 10:07:55;;;;;;;1.70;1.60;;;35.40;60.60;;;;;;4978182;28;20490;-66
2021/09/12 10:10:22;;;;;;;2.10;2.00;;;35.70;58.80;;;;;;4978340;28;20786;-65
2021/09/12 10:12:59;;;;;;;2.00;1.90;;;35.20;60.40;;;;;;4978003;28;21061;-67
2021/09/12 10:15:29;;;;;;;2.03;1.93;;;34.60;61.50;;;;;;4978286;28;20407;-64
2021/09/12 10:17:55;;;;;;;1.80;1.70;;;34.10;59.60;;;;;;4960484;28;20495;-67
2021/09/12 10:20:26;;;;;;;1.63;1.53;;;33.80;61.90;;;;;;4977836;28;20942;-64
2021/09/12 10:23:02;;;;;;;1.90;1.80;;;33.80;59.90;;;;;;4978177;28;20407;-65
2021/09/12 10:25:30;;;;;;;2.40;1.70;;;33.60;59.10;;;;;;4978030;28;20554;-63
2021/09/12 10:28:07;;;;;;;1.40;1.30;;;33.50;59.30;;;;;;4977094;28;20427;-67
2021/09/12 10:30:38;;;;;;;1.10;1.10;;;33.30;57.60;;;;;;4977886;28;20433;-65
2021/09/12 10:33:06;;;;;;;1.80;1.70;;;33.40;57.80;;;;;;4977929;28;20420;-67
2021/09/12 10:35:55;;;;;;;1.50;1.40;;;33.40;60.10;;;;;;4977677;28;20462;-61
2021/09/12 10:38:26;;;;;;;1.37;1.27;;;33.40;59.60;;;;;;4967010;28;20420;-63
2021/09/12 10:40:53;;;;;;;1.50;1.40;;;32.90;60.20;;;;;;4977715;28;20503;-64
2021/09/12 10:43:29;;;;;;;1.80;1.70;;;32.70;61.60;;;;;;4977132;28;20434;-65
2021/09/12 10:46:04;;;;;;;1.80;1.70;;;32.60;63.00;;;;;;4977453;28;20415;-66
2021/09/12 10:48:40;;;;;;;1.67;1.57;;;32.20;63.40;;;;;;4977270;28;20433;-62
2021/09/12 10:51:18;;;;;;;1.60;1.40;;;31.80;64.50;;;;;;4960102;28;20518;-64
2021/09/12 10:53:46;;;;;;;1.70;1.60;;;32.00;65.00;;;;;;4977278;28;20463;-62
2021/09/12 10:56:15;;;;;;;1.40;1.30;;;32.10;65.00;;;;;;4977155;28;20382;-66
2021/09/12 10:58:43;;;;;;;1.50;1.40;;;32.00;63.30;;;;;;4976610;28;20430;-61
2021/09/12 11:01:13;;;;;;;1.83;1.63;;;32.10;63.40;;;;;;4977177;28;20403;-68
2021/09/12 11:03:45;;;;;;;1.60;1.50;;;32.20;61.50;;;;;;4977145;28;20374;-62
2021/09/12 11:06:15;;;;;;;1.50;1.50;;;32.10;61.20;;;;;;4977210;28;20411;-67
2021/09/12 11:08:42;;;;;;;1.40;1.20;;;31.30;63.40;;;;;;4976795;28;20410;-62
2021/09/12 11:11:08;;;;;;;1.83;1.50;;;30.40;61.70;;;;;;4977173;28;20390;-64
2021/09/12 11:13:36;;;;;;;1.93;1.53;;;29.20;66.20;;;;;;4975896;28;20459;-65
2021/09/12 11:16:19;;;;;;;2.30;2.00;;;28.10;70.30;;;;;;4976935;28;20769;-64
2021/09/12 11:18:59;;;;;;;1.60;1.20;;;27.10;72.20;;;;;;4960200;28;20441;-61
2021/09/12 11:21:46;;;;;;;2.30;2.20;;;26.30;76.10;;;;;;4977199;28;20396;-64
2021/09/12 11:24:17;;;;;;;1.43;1.33;;;25.80;79.30;;;;;;4977103;28;20469;-63
2021/09/12 11:27:01;;;;;;;1.40;1.30;;;25.40;79.80;;;;;;4976145;28;20438;-67
2021/09/12 11:29:37;;;;;;;1.50;1.40;;;25.20;83.40;;;;;;4976560;28;20446;-65
2021/09/12 11:32:05;;;;;;;1.33;1.23;;;25.10;79.60;;;;;;4976952;28;20510;-61
2021/09/12 11:34:32;;;;;;;1.37;1.27;;;24.90;79.80;;;;;;4976856;28;20825;-64
2021/09/12 11:37:10;;;;;;;1.07;1.03;;;24.60;82.40;;;;;;4976229;28;20511;-61
2021/09/12 11:39:40;;;;;;;1.43;1.33;;;24.40;80.70;;;;;;4976550;28;20501;-66
2021/09/12 11:42:08;;;;;;;1.27;1.07;;;24.10;80.30;;;;;;4976238;28;20432;-62
2021/09/12 11:44:36;;;;;;;1.57;1.47;;;24.00;81.10;;;;;;4976403;28;20406;-67
2021/09/12 11:47:10;;;;;;;1.13;1.13;;;23.70;86.60;;;;;;4976113;28;20643;-61
2021/09/12 11:49:36;;;;;;;1.07;1.07;;;23.60;82.50;;;;;;4976147;28;20842;-65
2021/09/12 11:52:03;;;;;;;1.20;1.20;;;23.60;85.00;;;;;;4976167;28;20425;-61
2021/09/12 11:54:35;;;;;;;1.23;1.13;;;23.50;82.70;;;;;;4976411;28;20465;-64
2021/09/12 11:57:06;;;;;;;0.93;0.93;;;23.50;82.70;;;;;;4975817;28;20475;-62
2021/09/12 11:59:43;;;;;;;1.10;1.10;;;23.50;83.30;;;;;;4976484;28;20917;-64
2021/09/12 12:02:11;;;;;;;1.20;1.20;;;23.50;84.90;;;;;;4976396;28;20412;-62
2021/09/12 12:04:39;;;;;;;1.07;1.00;;;23.50;85.20;;;;;;4976251;28;20774;-66
2021/09/12 12:07:04;;;;;;;1.10;1.10;;;23.50;83.40;;;;;;4975701;28;20882;-65
2021/09/12 12:09:44;;;;;;;3.53;1.20;;;23.50;83.30;;;;;;4976148;28;20527;-67
2021/09/12 12:12:15;;;;;;;2.80;1.17;;;23.40;82.90;;;;;;4975593;28;20188;-64
2021/09/12 12:14:52;;;;;;;1.17;1.07;;;23.40;84.50;;;;;;4976105;28;20474;-65
2021/09/12 12:17:20;;;;;;;1.37;1.27;;;23.30;86.10;;;;;;4975508;28;20926;-66
2021/09/12 12:19:46;;;;;;;1.77;1.70;;;23.40;86.40;;;;;;4975605;28;21016;-67
2021/09/12 12:22:12;;;;;;;1.10;1.00;;;23.40;87.50;;;;;;4975932;28;20448;-63
2021/09/12 12:24:41;;;;;;;2.20;1.63;;;23.30;85.70;;;;;;4975671;28;20420;-67
2021/09/12 12:27:11;;;;;;;1.43;1.37;;;23.30;86.50;;;;;;4974856;28;20436;-62
2021/09/12 12:29:40;;;;;;;1.83;1.73;;;23.30;87.50;;;;;;4975789;28;20429;-67
2021/09/12 12:32:07;;;;;;;2.97;2.67;;;23.40;88.00;;;;;;4975654;28;20433;-64
2021/09/12 12:34:50;;;;;;;2.23;1.80;;;23.50;87.00;;;;;;4975527;28;20471;-67
2021/09/12 12:37:18;;;;;;;1.83;1.47;;;23.50;89.10;;;;;;4975270;28;20396;-65
2021/09/12 12:39:55;;;;;;;1.80;1.70;;;23.50;87.50;;;;;;4975417;28;20524;-69
2021/09/12 12:42:35;;;;;;;1.73;1.63;;;23.60;89.10;;;;;;4975158;28;20461;-63
2021/09/12 12:45:18;;;;;;;1.40;1.30;;;23.60;88.60;;;;;;4975687;28;20965;-66
2021/09/12 12:47:44;;;;;;;1.10;1.00;;;23.70;88.90;;;;;;4974869;28;20397;-64